createdAt,value
2023-04-02T00:00:12.892Z,90.28
2023-04-02T00:01:12.942Z,87.45
2023-04-02T00:02:13.041Z,90.64
2023-04-02T00:03:13.094Z,88.85
2023-04-02T00:04:13.193Z,83.85
2023-04-02T00:05:13.170Z,92.26
2023-04-02T00:06:13.279Z,88.95
2023-04-02T00:07:13.272Z,91.10
2023-04-02T00:08:13.320Z,94.38
2023-04-02T00:09:13.374Z,88.98
2023-04-02T00:10:13.429Z,88.35
2023-04-02T00:11:13.525Z,90.54
2023-04-02T00:12:13.594Z,89.58
2023-04-02T00:13:13.643Z,90.26
2023-04-02T00:14:13.674Z,88.26
2023-04-02T00:15:13.728Z,82.04
2023-04-02T00:16:13.822Z,86.10
2023-04-02T00:17:13.827Z,92.56
2023-04-02T00:18:13.883Z,94.68
2023-04-02T00:19:14.220Z,90.58
2023-04-02T00:20:14.027Z,77.84
2023-04-02T00:21:14.054Z,78.32
2023-04-02T00:22:14.112Z,79.36
2023-04-02T00:23:14.169Z,79.61
2023-04-02T00:24:14.230Z,76.10
2023-04-02T00:25:14.287Z,84.42
2023-04-02T00:26:14.380Z,86.61
2023-04-02T00:27:14.509Z,85.61
2023-04-02T00:28:14.579Z,85.64
2023-04-02T00:29:14.541Z,86.09
2023-04-02T00:30:14.620Z,85.52
2023-04-02T00:31:14.651Z,91.70
2023-04-02T00:32:14.802Z,92.65
2023-04-02T00:33:14.762Z,91.07
2023-04-02T00:34:14.863Z,88.90
2023-04-02T00:35:14.921Z,90.14
2023-04-02T00:36:14.990Z,89.01
2023-04-02T00:37:15.056Z,81.14
2023-04-02T00:38:15.091Z,88.93
2023-04-02T00:39:15.169Z,87.57
2023-04-02T00:40:15.225Z,86.44
2023-04-02T00:41:15.231Z,91.48
2023-04-02T00:42:15.352Z,90.17
2023-04-02T00:43:15.348Z,85.77
2023-04-02T00:44:15.430Z,87.32
2023-04-02T00:45:15.458Z,89.52
2023-04-02T00:46:15.564Z,84.97
2023-04-02T00:47:15.604Z,81.64
2023-04-02T00:48:15.660Z,83.38
2023-04-02T00:49:15.690Z,87.72
2023-04-02T00:50:15.775Z,88.15
2023-04-02T00:51:15.812Z,90.66
2023-04-02T00:52:15.910Z,90.30
2023-04-02T00:53:15.951Z,88.55
2023-04-02T00:54:16.110Z,92.70
2023-04-02T00:55:16.025Z,86.66
2023-04-02T00:56:16.110Z,88.19
2023-04-02T00:57:16.659Z,88.73
2023-04-02T00:58:16.237Z,86.64
2023-04-02T00:59:16.278Z,86.74
2023-04-02T01:00:16.332Z,88.63
2023-04-02T01:01:16.435Z,92.69
2023-04-02T01:02:16.484Z,90.73
2023-04-02T01:03:16.710Z,85.24
2023-04-02T01:04:16.558Z,84.34
2023-04-02T01:05:16.646Z,89.30
2023-04-02T01:06:16.639Z,86.23
2023-04-02T01:07:16.714Z,89.13
2023-04-02T01:08:16.768Z,90.80
2023-04-02T01:09:16.815Z,87.02
2023-04-02T01:10:16.905Z,88.25
2023-04-02T01:11:16.933Z,86.39
2023-04-02T01:12:16.995Z,81.90
2023-04-02T01:13:17.041Z,78.46
2023-04-02T01:14:17.116Z,76.27
2023-04-02T01:15:17.142Z,81.71
2023-04-02T01:16:17.272Z,82.88
2023-04-02T01:17:17.251Z,88.17
2023-04-02T01:18:17.346Z,74.28
2023-04-02T01:19:17.353Z,81.31
2023-04-02T01:20:17.424Z,84.39
2023-04-02T01:21:17.480Z,82.49
2023-04-02T01:22:17.518Z,77.56
2023-04-02T01:23:17.550Z,80.40
2023-04-02T01:24:17.612Z,79.03
2023-04-02T01:25:17.714Z,81.59
2023-04-02T01:26:17.728Z,80.90
2023-04-02T01:27:17.754Z,84.39
2023-04-02T01:28:17.834Z,89.72
2023-04-02T01:29:17.838Z,81.53
2023-04-02T01:30:17.905Z,85.31
2023-04-02T01:31:17.997Z,81.18
2023-04-02T01:32:18.005Z,79.59
2023-04-02T01:33:17.994Z,88.25
2023-04-02T01:34:18.084Z,86.75
2023-04-02T01:35:18.114Z,82.52
2023-04-02T01:36:18.203Z,80.74
2023-04-02T01:37:18.199Z,78.75
2023-04-02T01:38:18.257Z,77.33
2023-04-02T01:39:18.330Z,80.64
2023-04-02T01:40:18.304Z,84.86
2023-04-02T01:41:18.359Z,84.50
2023-04-02T01:42:18.426Z,79.26
2023-04-02T01:43:18.466Z,82.80
2023-04-02T01:44:18.505Z,85.44
2023-04-02T01:45:18.610Z,85.75
2023-04-02T01:46:18.650Z,89.66
2023-04-02T01:47:18.627Z,86.38
2023-04-02T01:48:18.713Z,83.73
2023-04-02T01:49:18.746Z,72.95
2023-04-02T01:50:18.793Z,76.59
2023-04-02T01:51:18.896Z,84.62
2023-04-02T01:52:18.890Z,84.45
2023-04-02T01:53:18.969Z,79.46
2023-04-02T01:54:19.018Z,83.60
2023-04-02T01:55:19.088Z,78.95
2023-04-02T01:56:19.134Z,75.94
2023-04-02T01:57:19.197Z,77.28
2023-04-02T01:58:19.232Z,80.56
2023-04-02T01:59:19.256Z,84.02
2023-04-02T02:00:19.348Z,85.80
2023-04-02T02:01:19.622Z,85.39
2023-04-02T02:02:19.472Z,83.83
2023-04-02T02:03:19.579Z,82.94
2023-04-02T02:04:19.568Z,82.84
2023-04-02T02:05:19.593Z,84.40
2023-04-02T02:06:19.702Z,85.78
2023-04-02T02:07:19.713Z,75.26
2023-04-02T02:08:19.773Z,81.15
2023-04-02T02:09:19.793Z,83.65
2023-04-02T02:10:19.837Z,82.10
2023-04-02T02:11:19.933Z,82.20
2023-04-02T02:12:19.990Z,82.18
2023-04-02T02:13:20.060Z,74.80
2023-04-02T02:14:20.102Z,71.19
2023-04-02T02:15:20.154Z,73.77
2023-04-02T02:16:20.288Z,80.74
2023-04-02T02:17:20.295Z,70.09
2023-04-02T02:18:20.325Z,81.29
2023-04-02T02:19:20.417Z,81.64
2023-04-02T02:20:20.437Z,84.53
2023-04-02T02:21:20.482Z,82.81
2023-04-02T02:22:20.542Z,84.59
2023-04-02T02:23:20.567Z,78.52
2023-04-02T02:24:20.694Z,81.61
2023-04-02T02:25:20.729Z,78.71
2023-04-02T02:26:20.754Z,79.08
2023-04-02T02:27:20.812Z,78.57
2023-04-02T02:28:20.886Z,77.26
2023-04-02T02:29:20.936Z,81.04
2023-04-02T02:30:20.998Z,80.20
2023-04-02T02:31:21.080Z,79.55
2023-04-02T02:32:21.158Z,80.90
2023-04-02T02:33:21.194Z,73.79
2023-04-02T02:34:21.320Z,68.14
2023-04-02T02:35:21.291Z,69.20
2023-04-02T02:36:21.401Z,64.07
2023-04-02T02:37:21.415Z,75.12
2023-04-02T02:38:21.437Z,74.38
2023-04-02T02:39:21.495Z,71.97
2023-04-02T02:40:21.591Z,75.35
2023-04-02T02:41:21.625Z,76.95
2023-04-02T02:42:21.687Z,68.91
2023-04-02T02:43:23.331Z,67.07
2023-04-02T02:44:21.812Z,61.75
2023-04-02T02:45:21.894Z,58.90
2023-04-02T02:46:21.981Z,68.69
2023-04-02T02:47:22.007Z,80.24
2023-04-02T02:48:22.043Z,80.08
2023-04-02T02:49:22.063Z,78.46
2023-04-02T02:50:22.146Z,77.31
2023-04-02T02:51:22.173Z,75.94
2023-04-02T02:52:22.210Z,79.12
2023-04-02T02:53:22.355Z,73.84
2023-04-02T02:54:22.346Z,75.09
2023-04-02T02:55:22.448Z,71.44
2023-04-02T02:56:22.425Z,70.35
2023-04-02T02:57:22.516Z,81.85
2023-04-02T02:58:22.571Z,76.31
2023-04-02T02:59:22.644Z,75.29
2023-04-02T03:00:22.690Z,75.48
2023-04-02T03:01:22.850Z,73.00
2023-04-02T03:02:22.878Z,72.80
2023-04-02T03:03:22.935Z,72.92
2023-04-02T03:04:22.979Z,70.42
2023-04-02T03:05:22.929Z,78.97
2023-04-02T03:06:22.945Z,84.95
2023-04-02T03:07:23.006Z,83.62
2023-04-02T03:08:23.063Z,84.74
2023-04-02T03:09:23.118Z,81.41
2023-04-02T03:10:23.135Z,81.14
2023-04-02T03:11:23.237Z,79.07
2023-04-02T03:12:23.289Z,80.01
2023-04-02T03:13:23.327Z,84.58
2023-04-02T03:14:23.401Z,80.23
2023-04-02T03:15:23.452Z,80.19
2023-04-02T03:16:23.528Z,82.92
2023-04-02T03:17:23.635Z,83.88
2023-04-02T03:18:23.627Z,83.67
2023-04-02T03:19:23.671Z,79.09
2023-04-02T03:20:23.679Z,75.43
2023-04-02T03:21:23.767Z,78.52
2023-04-02T03:22:23.786Z,76.55
2023-04-02T03:23:23.885Z,75.73
2023-04-02T03:24:23.898Z,74.37
2023-04-02T03:25:23.978Z,73.88
2023-04-02T03:26:24.009Z,74.68
2023-04-02T03:27:24.056Z,81.57
2023-04-02T03:28:24.104Z,81.78
2023-04-02T03:29:24.154Z,78.75
2023-04-02T03:30:24.206Z,86.10
2023-04-02T03:31:24.258Z,84.55
2023-04-02T03:32:24.318Z,80.37
2023-04-02T03:33:24.405Z,84.77
2023-04-02T03:34:24.402Z,85.49
2023-04-02T03:35:24.491Z,83.51
2023-04-02T03:36:24.600Z,80.98
2023-04-02T03:37:24.577Z,84.58
2023-04-02T03:38:24.656Z,85.61
2023-04-02T03:39:24.723Z,81.78
2023-04-02T03:40:24.771Z,84.02
2023-04-02T03:41:24.830Z,89.38
2023-04-02T03:42:24.895Z,87.22
2023-04-02T03:43:24.916Z,84.98
2023-04-02T03:44:24.941Z,85.56
2023-04-02T03:45:25.043Z,83.52
2023-04-02T03:46:25.164Z,83.09
2023-04-02T03:47:25.143Z,81.78
2023-04-02T03:48:25.188Z,84.62
2023-04-02T03:49:25.214Z,86.22
2023-04-02T03:50:25.254Z,87.11
2023-04-02T03:51:25.344Z,83.35
2023-04-02T03:52:25.411Z,82.32
2023-04-02T03:53:25.478Z,82.04
2023-04-02T03:54:25.534Z,88.25
2023-04-02T03:55:25.606Z,87.15
2023-04-02T03:56:25.626Z,79.88
2023-04-02T03:57:25.755Z,80.09
2023-04-02T03:58:25.762Z,80.52
2023-04-02T03:59:25.795Z,75.05
2023-04-02T04:00:25.829Z,76.81
2023-04-02T04:01:25.874Z,71.94
2023-04-02T04:02:26.022Z,71.25
2023-04-02T04:03:25.988Z,77.90
2023-04-02T04:04:26.082Z,79.85
2023-04-02T04:05:26.100Z,83.26
2023-04-02T04:06:26.121Z,85.17
2023-04-02T04:07:26.217Z,83.83
2023-04-02T04:08:26.212Z,82.89
2023-04-02T04:09:26.277Z,78.48
2023-04-02T04:10:26.319Z,79.34
2023-04-02T04:11:26.442Z,77.15
2023-04-02T04:12:26.471Z,74.61
2023-04-02T04:13:26.502Z,76.75
2023-04-02T04:14:26.519Z,72.60
2023-04-02T04:15:26.545Z,73.53
2023-04-02T04:16:26.690Z,81.51
2023-04-02T04:17:26.659Z,85.37
2023-04-02T04:18:26.644Z,77.30
2023-04-02T04:19:26.686Z,75.49
2023-04-02T04:20:26.714Z,78.13
2023-04-02T04:21:26.700Z,85.27
2023-04-02T04:22:26.705Z,86.87
2023-04-02T04:23:26.754Z,87.68
2023-04-02T04:24:26.827Z,82.04
2023-04-02T04:25:26.948Z,78.25
2023-04-02T04:26:26.986Z,78.09
2023-04-02T04:27:26.974Z,82.20
2023-04-02T04:28:27.043Z,84.50
2023-04-02T04:29:27.061Z,83.33
2023-04-02T04:30:27.118Z,81.30
2023-04-02T04:31:27.225Z,78.16
2023-04-02T04:32:27.566Z,78.47
2023-04-02T04:33:27.268Z,79.52
2023-04-02T04:34:27.363Z,74.12
2023-04-02T04:35:27.409Z,76.41
2023-04-02T04:36:27.440Z,73.73
2023-04-02T04:37:27.514Z,73.22
2023-04-02T04:38:27.581Z,71.41
2023-04-02T04:39:27.630Z,78.34
2023-04-02T04:40:27.673Z,83.87
2023-04-02T04:41:27.715Z,81.90
2023-04-02T04:42:27.718Z,76.00
2023-04-02T04:43:27.832Z,78.25
2023-04-02T04:44:27.839Z,77.04
2023-04-02T04:45:27.873Z,76.34
2023-04-02T04:46:28.013Z,78.42
2023-04-02T04:47:27.969Z,76.73
2023-04-02T04:48:28.017Z,77.92
2023-04-02T04:49:28.069Z,79.37
2023-04-02T04:50:28.133Z,78.32
2023-04-02T04:51:28.162Z,75.66
2023-04-02T04:52:28.201Z,73.44
2023-04-02T04:53:28.271Z,69.72
2023-04-02T04:54:28.329Z,72.70
2023-04-02T04:55:28.323Z,75.60
2023-04-02T04:56:28.413Z,72.14
2023-04-02T04:57:28.595Z,76.67
2023-04-02T04:58:28.513Z,82.40
2023-04-02T04:59:28.559Z,76.93
2023-04-02T05:00:28.623Z,76.11
2023-04-02T05:01:28.725Z,73.97
2023-04-02T05:02:28.801Z,78.96
2023-04-02T05:03:28.828Z,75.91
2023-04-02T05:04:28.877Z,73.06
2023-04-02T05:05:28.921Z,77.43
2023-04-02T05:06:28.971Z,78.85
2023-04-02T05:07:28.994Z,79.62
2023-04-02T05:08:29.065Z,81.96
2023-04-02T05:09:29.077Z,82.40
2023-04-02T05:10:29.146Z,83.73
2023-04-02T05:11:29.221Z,86.58
2023-04-02T05:12:29.295Z,79.39
2023-04-02T05:13:29.332Z,78.60
2023-04-02T05:14:29.381Z,79.35
2023-04-02T05:15:29.490Z,78.33
2023-04-02T05:16:29.578Z,79.78
2023-04-02T05:17:29.635Z,78.14
2023-04-02T05:18:29.615Z,80.07
2023-04-02T05:19:29.643Z,78.75
2023-04-02T05:20:29.721Z,77.55
2023-04-02T05:21:29.790Z,69.27
2023-04-02T05:22:29.834Z,76.92
2023-04-02T05:23:29.941Z,76.53
2023-04-02T05:24:29.981Z,77.85
2023-04-02T05:25:30.009Z,73.21
2023-04-02T05:26:30.089Z,74.21
2023-04-02T05:27:30.125Z,70.14
2023-04-02T05:28:30.211Z,70.72
2023-04-02T05:29:30.242Z,73.01
2023-04-02T05:30:30.291Z,74.81
2023-04-02T05:31:30.399Z,76.31
2023-04-02T05:32:30.443Z,75.36
2023-04-02T05:33:30.467Z,74.05
2023-04-02T05:34:30.518Z,77.05
2023-04-02T05:35:30.537Z,74.30
2023-04-02T05:36:30.616Z,76.94
2023-04-02T05:37:30.658Z,76.90
2023-04-02T05:38:30.761Z,74.87
2023-04-02T05:39:30.859Z,75.24
2023-04-02T05:40:30.834Z,78.66
2023-04-02T05:41:30.898Z,77.33
2023-04-02T05:42:30.973Z,74.96
2023-04-02T05:43:31.411Z,76.49
2023-04-02T05:44:31.110Z,78.96
2023-04-02T05:45:31.170Z,76.75
2023-04-02T05:46:31.235Z,69.07
2023-04-02T05:47:31.379Z,69.57
2023-04-02T05:48:31.329Z,68.25
2023-04-02T05:49:31.381Z,69.76
2023-04-02T05:50:31.474Z,71.81
2023-04-02T05:51:31.475Z,73.95
2023-04-02T05:52:31.523Z,70.17
2023-04-02T05:53:31.622Z,76.88
2023-04-02T05:54:31.652Z,76.23
2023-04-02T05:55:31.818Z,76.58
2023-04-02T05:56:31.814Z,79.46
2023-04-02T05:57:42.363Z,80.78
2023-04-02T05:58:35.993Z,80.95
2023-04-02T05:59:31.833Z,81.09
2023-04-02T06:00:31.844Z,81.04
2023-04-02T06:01:31.835Z,75.02
2023-04-02T06:02:31.934Z,73.82
2023-04-02T06:03:31.894Z,71.14
2023-04-02T06:04:31.820Z,72.46
2023-04-02T06:05:31.821Z,69.00
2023-04-02T06:06:31.895Z,69.56
2023-04-02T06:07:31.948Z,71.36
2023-04-02T06:08:32.009Z,69.68
2023-04-02T06:09:32.067Z,70.13
2023-04-02T06:10:32.096Z,70.39
2023-04-02T06:11:32.165Z,72.83
2023-04-02T06:12:32.225Z,72.78
2023-04-02T06:13:32.314Z,74.69
2023-04-02T06:14:32.345Z,71.59
2023-04-02T06:15:32.439Z,69.30
2023-04-02T06:16:32.487Z,73.37
2023-04-02T06:17:32.517Z,69.47
2023-04-02T06:18:32.564Z,74.96
2023-04-02T06:19:32.600Z,73.72
2023-04-02T06:20:32.712Z,71.80
2023-04-02T06:21:32.724Z,71.48
2023-04-02T06:22:32.822Z,73.49
2023-04-02T06:23:32.910Z,71.04
2023-04-02T06:24:32.884Z,71.61
2023-04-02T06:25:32.978Z,71.27
2023-04-02T06:26:33.017Z,71.31
2023-04-02T06:27:33.058Z,69.59
2023-04-02T06:28:33.123Z,68.56
2023-04-02T06:29:33.154Z,72.28
2023-04-02T06:30:33.261Z,75.16
2023-04-02T06:31:33.345Z,72.90
2023-04-02T06:32:33.343Z,74.53
2023-04-02T06:33:33.390Z,75.44
2023-04-02T06:34:33.410Z,72.95
2023-04-02T06:35:33.847Z,76.86
2023-04-02T06:36:33.533Z,71.99
2023-04-02T06:37:33.574Z,74.70
2023-04-02T06:38:33.666Z,74.17
2023-04-02T06:39:33.714Z,78.60
2023-04-02T06:40:33.774Z,72.98
2023-04-02T06:41:33.813Z,72.61
2023-04-02T06:42:33.844Z,72.81
2023-04-02T06:43:33.934Z,72.15
2023-04-02T06:44:33.986Z,72.83
2023-04-02T06:45:34.234Z,72.72
2023-04-02T06:46:34.196Z,71.45
2023-04-02T06:47:34.158Z,72.61
2023-04-02T06:48:34.205Z,77.18
2023-04-02T06:49:34.267Z,72.30
2023-04-02T06:50:34.315Z,73.87
2023-04-02T06:51:34.370Z,78.05
2023-04-02T06:52:35.153Z,74.92
2023-04-02T06:53:34.485Z,74.85
2023-04-02T06:54:34.542Z,72.01
2023-04-02T06:55:34.883Z,73.70
2023-04-02T06:56:34.638Z,74.80
2023-04-02T06:57:34.781Z,76.09
2023-04-02T06:58:34.769Z,76.20
2023-04-02T06:59:34.850Z,76.27
2023-04-02T07:00:34.881Z,77.85
2023-04-02T07:01:34.970Z,76.99
2023-04-02T07:02:35.078Z,75.27
2023-04-02T07:03:35.037Z,79.52
2023-04-02T07:04:35.114Z,74.39
2023-04-02T07:05:35.327Z,73.02
2023-04-02T07:06:35.207Z,71.74
2023-04-02T07:07:35.269Z,71.98
2023-04-02T07:08:35.312Z,70.25
2023-04-02T07:09:35.349Z,67.14
2023-04-02T07:10:35.394Z,72.70
2023-04-02T07:11:35.453Z,70.04
2023-04-02T07:12:35.489Z,67.95
2023-04-02T07:13:35.547Z,67.47
2023-04-02T07:14:35.602Z,62.55
2023-04-02T07:15:35.864Z,65.61
2023-04-02T07:16:35.706Z,64.15
2023-04-02T07:17:35.757Z,63.76
2023-04-02T07:18:35.859Z,41.37
2023-04-02T07:19:35.865Z,49.44
2023-04-02T07:20:35.919Z,56.29
2023-04-02T07:21:36.054Z,50.73
2023-04-02T07:22:36.064Z,60.98
2023-04-02T07:23:36.095Z,39.84
2023-04-02T07:24:36.129Z,38.51
2023-04-02T07:25:36.371Z,38.69
2023-04-02T07:26:36.222Z,46.95
2023-04-02T07:27:36.269Z,46.30
2023-04-02T07:28:36.328Z,58.63
2023-04-02T07:29:36.349Z,45.32
2023-04-02T07:30:36.404Z,57.00
2023-04-02T07:31:36.566Z,61.07
2023-04-02T07:32:36.550Z,63.62
2023-04-02T07:33:36.549Z,60.83
2023-04-02T07:34:36.604Z,57.41
2023-04-02T07:35:36.992Z,54.57
2023-04-02T07:36:36.686Z,54.81
2023-04-02T07:37:36.706Z,64.48
2023-04-02T07:38:36.774Z,65.95
2023-04-02T07:39:37.914Z,63.56
2023-04-02T07:40:36.779Z,68.01
2023-04-02T07:41:36.730Z,69.33
2023-04-02T07:42:36.732Z,67.99
2023-04-02T07:43:36.750Z,68.31
2023-04-02T07:44:36.726Z,64.81
2023-04-02T07:45:36.924Z,66.85
2023-04-02T07:46:36.662Z,68.40
2023-04-02T07:47:36.662Z,69.20
2023-04-02T07:48:36.627Z,68.94
2023-04-02T07:49:36.597Z,67.38
2023-04-02T07:50:36.623Z,67.65
2023-04-02T07:51:36.592Z,63.88
2023-04-02T07:52:37.594Z,69.70
2023-04-02T07:53:36.543Z,70.51
2023-04-02T07:54:36.504Z,70.02
2023-04-02T07:55:36.839Z,67.07
2023-04-02T07:56:36.497Z,67.49
2023-04-02T07:57:36.493Z,68.51
2023-04-02T07:58:36.491Z,64.93
2023-04-02T07:59:36.421Z,72.22
2023-04-02T08:00:36.459Z,70.56
2023-04-02T08:01:36.537Z,68.94
2023-04-02T08:02:36.572Z,66.94
2023-04-02T08:03:36.728Z,67.24
2023-04-02T08:04:36.640Z,68.84
2023-04-02T08:05:36.894Z,67.33
2023-04-02T08:06:36.750Z,68.74
2023-04-02T08:07:36.821Z,65.88
2023-04-02T08:08:36.859Z,67.73
2023-04-02T08:09:36.987Z,68.37
2023-04-02T08:10:36.940Z,64.91
2023-04-02T08:11:36.961Z,66.81
2023-04-02T08:12:37.051Z,67.13
2023-04-02T08:13:37.037Z,61.48
2023-04-02T08:14:37.069Z,64.77
2023-04-02T08:15:37.529Z,60.55
2023-04-02T08:16:37.265Z,62.97
2023-04-02T08:17:37.223Z,63.15
2023-04-02T08:18:37.242Z,64.49
2023-04-02T08:19:47.835Z,64.13
2023-04-02T08:20:38.266Z,64.15
2023-04-02T08:21:37.263Z,61.10
2023-04-02T08:22:37.248Z,62.11
2023-04-02T08:23:37.219Z,58.32
2023-04-02T08:24:37.201Z,55.33
2023-04-02T08:25:37.323Z,51.25
2023-04-02T08:26:37.182Z,51.21
2023-04-02T08:27:37.170Z,51.62
2023-04-02T08:28:37.216Z,51.62
2023-04-02T08:29:37.246Z,52.71
2023-04-02T08:30:37.319Z,52.03
2023-04-02T08:31:37.358Z,49.10
2023-04-02T08:32:37.460Z,46.46
2023-04-02T08:33:37.484Z,46.15
2023-04-02T08:34:37.514Z,41.63
2023-04-02T08:35:37.798Z,50.54
2023-04-02T08:36:37.630Z,48.14
2023-04-02T08:37:37.706Z,52.30
2023-04-02T08:38:37.751Z,39.51
2023-04-02T08:39:37.781Z,47.40
2023-04-02T08:40:37.847Z,41.28
2023-04-02T08:41:37.896Z,42.56
2023-04-02T08:42:37.990Z,45.84
2023-04-02T08:43:38.034Z,41.21
2023-04-02T08:44:38.087Z,40.66
2023-04-02T08:45:38.199Z,35.16
2023-04-02T08:46:38.234Z,38.35
2023-04-02T08:47:38.309Z,36.86
2023-04-02T08:48:39.110Z,46.61
2023-04-02T08:49:38.323Z,39.29
2023-04-02T08:50:38.387Z,38.18
2023-04-02T08:51:38.508Z,42.00
2023-04-02T08:52:38.499Z,40.84
2023-04-02T08:53:38.595Z,32.84
2023-04-02T08:54:38.674Z,32.76
2023-04-02T08:55:38.692Z,38.11
2023-04-02T08:56:38.737Z,37.18
2023-04-02T08:57:38.762Z,35.15
2023-04-02T08:58:38.806Z,42.38
2023-04-02T08:59:38.889Z,29.04
2023-04-02T09:00:38.912Z,34.58
2023-04-02T09:01:39.010Z,44.23
2023-04-02T09:02:39.018Z,35.49
2023-04-02T09:03:39.049Z,31.24
2023-04-02T09:04:40.016Z,42.79
2023-04-02T09:05:39.166Z,32.33
2023-04-02T09:06:39.234Z,38.48
2023-04-02T09:07:39.226Z,39.86
2023-04-02T09:08:39.345Z,32.39
2023-04-02T09:09:39.342Z,27.67
2023-04-02T09:10:39.383Z,29.86
2023-04-02T09:11:39.465Z,33.06
2023-04-02T09:12:40.626Z,44.57
2023-04-02T09:13:39.501Z,28.07
2023-04-02T09:14:39.573Z,29.46
2023-04-02T09:15:39.593Z,36.49
2023-04-02T09:16:39.657Z,33.47
2023-04-02T09:17:50.477Z,41.48
2023-04-02T09:18:40.716Z,41.66
2023-04-02T09:19:39.665Z,36.90
2023-04-02T09:20:39.663Z,29.69
2023-04-02T09:21:39.654Z,34.53
2023-04-02T09:22:39.611Z,38.01
2023-04-02T09:23:39.618Z,28.49
2023-04-02T09:24:39.588Z,35.50
2023-04-02T09:25:39.620Z,32.25
2023-04-02T09:26:39.570Z,30.76
2023-04-02T09:27:39.577Z,35.52
2023-04-02T09:28:39.559Z,43.02
2023-04-02T09:29:39.525Z,29.95
2023-04-02T09:30:39.570Z,36.50
2023-04-02T09:31:39.621Z,32.49
2023-04-02T09:32:39.723Z,36.05
2023-04-02T09:33:39.685Z,31.18
2023-04-02T09:34:39.731Z,39.15
2023-04-02T09:35:39.879Z,40.50
2023-04-02T09:36:39.788Z,42.04
2023-04-02T09:37:39.821Z,49.50
2023-04-02T09:38:39.872Z,43.44
2023-04-02T09:39:39.902Z,35.27
2023-04-02T09:40:39.951Z,35.69
2023-04-02T09:41:39.949Z,43.62
2023-04-02T09:42:40.003Z,43.68
2023-04-02T09:43:40.065Z,29.87
2023-04-02T09:44:40.096Z,48.25
2023-04-02T09:45:40.097Z,40.31
2023-04-02T09:46:40.180Z,43.83
2023-04-02T09:47:42.100Z,32.69
2023-04-02T09:48:40.221Z,33.85
2023-04-02T09:49:40.252Z,25.92
2023-04-02T09:50:40.285Z,29.00
2023-04-02T09:51:40.376Z,36.58
2023-04-02T09:52:40.362Z,37.15
2023-04-02T09:53:42.411Z,42.76
2023-04-02T09:54:40.418Z,35.37
2023-04-02T09:55:40.460Z,32.16
2023-04-02T09:56:40.488Z,25.00
2023-04-02T09:57:40.540Z,38.57
2023-04-02T09:58:40.578Z,40.23
2023-04-02T09:59:40.619Z,28.91
2023-04-02T10:00:42.109Z,45.42
2023-04-02T10:01:40.747Z,39.40
2023-04-02T10:02:40.724Z,34.06
2023-04-02T10:03:40.734Z,43.45
2023-04-02T10:04:40.820Z,34.48
2023-04-02T10:05:41.610Z,32.79
2023-04-02T10:06:40.835Z,31.44
2023-04-02T10:07:40.841Z,26.80
2023-04-02T10:08:40.891Z,39.88
2023-04-02T10:09:40.934Z,32.61
2023-04-02T10:10:40.931Z,35.84
2023-04-02T10:11:46.647Z,30.39
2023-04-02T10:12:41.953Z,30.96
2023-04-02T10:13:40.984Z,31.03
2023-04-02T10:14:40.920Z,33.14
2023-04-02T10:15:40.918Z,40.40
2023-04-02T10:16:40.959Z,50.75
2023-04-02T10:17:40.993Z,29.39
2023-04-02T10:18:40.862Z,33.41
2023-04-02T10:19:40.910Z,28.38
2023-04-02T10:20:50.412Z,33.66
2023-04-02T10:21:41.846Z,33.80
2023-04-02T10:22:40.838Z,33.82
2023-04-02T10:23:40.820Z,36.17
2023-04-02T10:24:40.818Z,37.51
2023-04-02T10:25:40.814Z,41.28
2023-04-02T10:26:40.768Z,30.97
2023-04-02T10:27:40.794Z,28.57
2023-04-02T10:28:40.753Z,29.17
2023-04-02T10:29:40.748Z,36.26
2023-04-02T10:30:40.775Z,40.37
2023-04-02T10:31:40.712Z,39.01
2023-04-02T10:32:40.771Z,30.56
2023-04-02T10:33:40.725Z,36.73
2023-04-02T10:34:42.817Z,31.51
2023-04-02T10:35:40.749Z,27.69
2023-04-02T10:36:40.735Z,25.00
2023-04-02T10:37:40.742Z,34.09
2023-04-02T10:38:40.768Z,37.00
2023-04-02T10:39:40.816Z,34.09
2023-04-02T10:40:40.785Z,38.00
2023-04-02T10:41:40.841Z,24.59
2023-04-02T10:42:40.914Z,33.19
2023-04-02T10:43:40.869Z,43.39
2023-04-02T10:44:40.958Z,38.41
2023-04-02T10:45:41.029Z,50.29
2023-04-02T10:46:41.040Z,49.51
2023-04-02T10:47:41.058Z,43.70
2023-04-02T10:48:41.000Z,43.41
2023-04-02T10:49:41.109Z,45.09
2023-04-02T10:50:41.076Z,41.51
2023-04-02T10:51:41.081Z,43.23
2023-04-02T10:52:41.126Z,46.97
2023-04-02T10:53:41.130Z,37.98
2023-04-02T10:54:41.173Z,37.33
2023-04-02T10:55:41.192Z,43.99
2023-04-02T10:56:50.780Z,57.29
2023-04-02T10:57:42.306Z,57.39
2023-04-02T10:58:41.191Z,47.19
2023-04-02T10:59:41.191Z,46.61
2023-04-02T11:00:41.162Z,43.64
2023-04-02T11:01:41.193Z,47.28
2023-04-02T11:02:41.169Z,50.45
2023-04-02T11:03:41.373Z,46.72
2023-04-02T11:04:41.128Z,37.42
2023-04-02T11:05:41.091Z,56.02
2023-04-02T11:06:41.121Z,57.92
2023-04-02T11:07:41.062Z,46.83
2023-04-02T11:08:41.044Z,51.47
2023-04-02T11:09:41.069Z,48.04
2023-04-02T11:10:41.069Z,42.17
2023-04-02T11:11:41.033Z,47.14
2023-04-02T11:12:42.028Z,49.37
2023-04-02T11:13:41.007Z,45.35
2023-04-02T11:14:41.039Z,49.80
2023-04-02T11:15:41.083Z,58.31
2023-04-02T11:16:44.310Z,51.55
2023-04-02T11:17:41.089Z,59.33
2023-04-02T11:18:41.046Z,56.67
2023-04-02T11:19:41.078Z,52.44
2023-04-02T11:20:41.041Z,45.33
2023-04-02T11:21:54.937Z,39.38
2023-04-02T11:22:42.029Z,39.90
2023-04-02T11:23:41.003Z,42.89
2023-04-02T11:24:41.005Z,42.62
2023-04-02T11:25:40.978Z,49.07
2023-04-02T11:26:40.935Z,53.50
2023-04-02T11:27:40.961Z,49.61
2023-04-02T11:28:40.957Z,55.34
2023-04-02T11:29:40.969Z,45.00
2023-04-02T11:30:40.918Z,47.67
2023-04-02T11:31:40.938Z,57.02
2023-04-02T11:32:40.957Z,64.84
2023-04-02T11:33:43.378Z,62.58
2023-04-02T11:34:40.890Z,56.36
2023-04-02T11:35:41.134Z,62.87
2023-04-02T11:36:40.834Z,58.56
2023-04-02T11:37:40.836Z,64.37
2023-04-02T11:38:40.828Z,67.06
2023-04-02T11:39:40.816Z,56.82
2023-04-02T11:40:40.808Z,59.54
2023-04-02T11:41:40.800Z,59.60
2023-04-02T11:42:40.846Z,67.18
2023-04-02T11:43:40.763Z,67.12
2023-04-02T11:44:40.796Z,65.41
2023-04-02T11:45:51.869Z,48.56
2023-04-02T11:46:41.794Z,49.39
2023-04-02T11:47:40.762Z,51.91
2023-04-02T11:48:40.728Z,50.88
2023-04-02T11:49:40.742Z,56.90
2023-04-02T11:50:40.735Z,55.63
2023-04-02T11:51:40.677Z,61.50
2023-04-02T11:52:40.672Z,52.80
2023-04-02T11:53:40.696Z,66.32
2023-04-02T11:54:40.619Z,59.00
2023-04-02T11:55:40.634Z,62.23
2023-04-02T11:56:40.590Z,63.37
2023-04-02T11:57:40.683Z,59.38
2023-04-02T11:58:40.623Z,61.72
2023-04-02T11:59:40.547Z,55.12
2023-04-02T12:00:40.569Z,63.60
2023-04-02T12:01:40.593Z,63.91
2023-04-02T12:02:40.690Z,59.26
2023-04-02T12:03:40.530Z,62.27
2023-04-02T12:04:40.567Z,66.72
2023-04-02T12:05:40.663Z,64.81
2023-04-02T12:06:40.606Z,59.60
2023-04-02T12:07:40.629Z,62.72
2023-04-02T12:08:50.838Z,62.55
2023-04-02T12:09:41.641Z,62.96
2023-04-02T12:10:40.610Z,63.38
2023-04-02T12:11:40.603Z,62.65
2023-04-02T12:12:40.577Z,59.13
2023-04-02T12:13:40.576Z,64.71
2023-04-02T12:14:40.559Z,64.61
2023-04-02T12:15:40.556Z,69.05
2023-04-02T12:16:40.540Z,53.57
2023-04-02T12:17:40.585Z,59.37
2023-04-02T12:18:40.520Z,58.60
2023-04-02T12:19:40.509Z,60.21
2023-04-02T12:20:40.491Z,66.40
2023-04-02T12:21:40.460Z,49.73
2023-04-02T12:22:40.489Z,53.26
2023-04-02T12:23:40.463Z,54.54
2023-04-02T12:24:40.474Z,65.66
2023-04-02T12:25:40.495Z,58.63
2023-04-02T12:26:40.408Z,56.89
2023-04-02T12:27:40.426Z,64.72
2023-04-02T12:28:40.405Z,59.86
2023-04-02T12:29:40.399Z,52.40
2023-04-02T12:30:40.424Z,56.31
2023-04-02T12:31:40.454Z,56.41
2023-04-02T12:32:40.454Z,55.40
2023-04-02T12:33:40.468Z,51.18
2023-04-02T12:34:40.501Z,47.22
2023-04-02T12:35:40.544Z,52.70
2023-04-02T12:36:40.550Z,63.35
2023-04-02T12:37:40.591Z,50.09
2023-04-02T12:38:40.610Z,50.13
2023-04-02T12:39:40.608Z,43.57
2023-04-02T12:40:40.696Z,50.53
2023-04-02T12:41:40.710Z,58.99
2023-04-02T12:42:40.749Z,48.63
2023-04-02T12:43:40.782Z,51.15
2023-04-02T12:44:40.802Z,46.54
2023-04-02T12:45:40.780Z,51.87
2023-04-02T12:46:40.991Z,48.07
2023-04-02T12:47:40.871Z,45.39
2023-04-02T12:48:40.913Z,43.99
2023-04-02T12:49:40.952Z,40.84
2023-04-02T12:50:40.934Z,41.55
2023-04-02T12:51:40.998Z,50.30
2023-04-02T12:52:41.037Z,47.55